首页
METAR-TAF:

METAR-TAF

机场 :

华盛顿杜勒斯国际机场

华盛顿, 弗吉尼亚州, 美国

纬度: 38-56-05N, 经度: 077-26-51W, 海拔: 95米

当前天气观测

该预报发布于47分钟前的12:52 UTC
静风
温度 17°C
湿度 52%
气压 1026 hPa
能見度: 16.1公里
少量云层高于5500英尺
散云层高于8500英尺
多云层高于25000英尺

METAR: KIAD 221252Z 00000KT 10SM FEW055 SCT085 BKN250 17/07 A3029 RMK AO2 SLP254 T01670067

时间: 09:39 (13:39 UTC)

预报

该预报发布于2小时和10分钟前的11:29 UTC
预报有效从22日的 12点(UTC)到 23日的 18点(UTC)
风速3节,风向多变
能見度: 10公里
少量云层高于13000英尺
多云层高于20000英尺
从 22日的 1400点(UTC)
风速6节,风向东南
能見度: 10公里
散云层高于5000英尺
多云层高于20000英尺
从 22日的 1800点(UTC)
风速8节,风向
能見度: 10公里
散云层高于7000英尺
多云层高于20000英尺
从 23日的 1500点(UTC)
风速10节,风向西南
能見度: 10公里
多云层高于7000英尺

TAF: KIAD 221129Z 2212/2318 VRB03KT P6SM FEW130 BKN200 FM221400 14006KT P6SM SCT050 BKN200 FM221800 17008KT P6SM SCT070 BKN200 FM231500 22010KT P6SM BKN070

超过4000个机场的气象观测和天气预报(METAR&TAF报告)。

可查询的气象台以黄色和红色小点在地图上表示。

将鼠标移到小点上方,可查看气象台名称。

然后点击查看天气观测和预报。

如需切换地图:点击带黑十字的绿色按钮放大地图;点击带横线的绿色按钮缩小地图;或者点击绿色箭头查看邻近地区的地图。


METAR-TAF: